Time;durP1;ratioP1;P1;durP2;ratioP2;P2;SDS_P1;SDS_P2;PMS_P1;PMS_P2;Temp;Humidity;BMP_temperature;BMP_pressure;BME280_temperature;BME280_humidity;BME280_pressure;Samples;Min_cycle;Max_cycle;Signal;HPM_P1;HPM_P2
2022/09/08 00:02:01;;;;;;;9.35;3.58;;;;;;;-143.48;61.65;77512.47;5034161;28;20468;-75
2022/09/08 00:04:26;;;;;;;12.05;3.90;;;;;;;-143.48;62.06;77540.25;5033987;28;20043;-74
2022/09/08 00:06:53;;;;;;;9.65;3.90;;;;;;;-143.48;61.82;77536.28;5032951;28;20064;-74
2022/09/08 00:09:19;;;;;;;10.75;3.90;;;;;;;-143.48;62.14;77540.25;5034115;28;20029;-75
2022/09/08 00:11:45;;;;;;;10.88;4.05;;;;;;;-143.48;62.22;77542.22;5033957;28;20095;-75
2022/09/08 00:14:11;;;;;;;9.82;4.00;;;;;;;-143.48;61.83;77534.28;5033907;28;20029;-75
2022/09/08 00:16:39;;;;;;;12.30;4.00;;;;;;;-143.48;62.52;77528.34;5032643;28;20096;-75
2022/09/08 00:19:04;;;;;;;12.70;4.10;;;;;;;-143.48;62.56;77512.47;5032494;28;20021;-75
2022/09/08 00:21:30;;;;;;;8.70;3.65;;;;;;;-143.48;62.84;77524.38;5032649;28;20025;-75
2022/09/08 00:23:55;;;;;;;8.88;3.60;;;;;;;-143.48;62.63;77522.38;5032522;28;20120;-75
2022/09/08 00:26:21;;;;;;;8.57;3.83;;;;;;;-143.48;62.45;77522.38;5032365;28;20420;-75
2022/09/08 00:28:47;;;;;;;12.00;3.83;;;;;;;-143.48;62.69;77528.34;5033746;28;20473;-75
2022/09/08 00:31:13;;;;;;;9.88;3.95;;;;;;;-143.48;62.81;77524.38;5033567;28;20036;-76
2022/09/08 00:33:38;;;;;;;9.73;4.10;;;;;;;-143.48;62.55;77512.47;5032274;28;20396;-76
2022/09/08 00:36:04;;;;;;;12.65;4.15;;;;;;;-143.48;62.35;77512.47;5033615;28;20101;-75
2022/09/08 00:38:31;;;;;;;14.60;4.30;;;;;;;-143.48;62.81;77512.47;5032237;28;20108;-75
2022/09/08 00:40:58;;;;;;;13.02;4.72;;;;;;;-143.48;62.57;77512.47;5033503;28;20476;-75
2022/09/08 00:43:44;;;;;;;11.18;4.80;;;;;;;-143.48;62.64;77518.44;5033385;28;20061;-75
2022/09/08 00:46:12;;;;;;;10.80;4.28;;;;;;;-143.48;63.21;77510.50;5033302;28;20033;-75
2022/09/08 00:48:43;;;;;;;12.45;3.88;;;;;;;-143.48;63.21;77510.50;5032193;28;20393;-75
2022/09/08 00:51:08;;;;;;;13.20;4.38;;;;;;;-143.48;62.86;77508.50;5033367;28;20481;-74
2022/09/08 00:53:39;;;;;;;11.75;4.35;;;;;;;-143.48;63.18;77508.50;5033321;28;20025;-75
2022/09/08 00:56:06;;;;;;;14.52;4.60;;;;;;;-143.48;62.69;77496.63;5033200;28;20046;-76
2022/09/08 00:58:36;;;;;;;15.48;4.60;;;;;;;-143.48;63.07;77518.44;5033245;28;20021;-75
2022/09/08 01:01:03;;;;;;;12.57;4.60;;;;;;;-143.48;63.56;77528.34;5033198;28;20056;-76
2022/09/08 01:03:31;;;;;;;11.73;4.78;;;;;;;-143.48;64.32;77544.19;5031871;28;20053;-75
2022/09/08 01:14:56;;;;;;;11.52;5.40;;;;;;;-143.48;66.38;77569.97;5033316;28;20091;-75
2022/09/08 01:17:25;;;;;;;17.10;6.00;;;;;;;-143.48;66.33;77585.84;5031761;28;20028;-75
2022/09/08 01:19:52;;;;;;;12.15;5.70;;;;;;;-143.48;66.18;77562.06;5033059;28;20030;-75
2022/09/08 01:22:29;;;;;;;13.05;5.50;;;;;;;-143.48;65.36;77544.19;5033015;28;20022;-76
2022/09/08 01:25:07;;;;;;;11.82;5.55;;;;;;;-143.48;65.14;77556.09;5032987;28;20432;-75
2022/09/08 01:27:36;;;;;;;12.15;5.50;;;;;;;-143.48;64.93;77550.16;5032929;28;20033;-76
2022/09/08 01:30:05;;;;;;;13.43;5.53;;;;;;;-143.48;64.94;77573.94;5033014;28;20495;-76
2022/09/08 01:32:34;;;;;;;13.40;5.10;;;;;;;-143.48;64.09;77564.03;5031697;28;20018;-76
2022/09/08 01:34:59;;;;;;;16.70;4.38;;;;;;;-143.48;64.08;77560.06;5033019;28;20543;-75
2022/09/08 01:37:24;;;;;;;12.30;4.60;;;;;;;-143.48;62.95;77552.13;5032794;28;20104;-75
2022/09/08 01:39:50;;;;;;;12.25;4.25;;;;;;;-143.48;63.72;77560.06;5031767;28;20063;-75
2022/09/08 01:42:16;;;;;;;11.35;4.10;;;;;;;-143.48;64.95;77583.84;5031598;28;20366;-75
2022/09/08 01:44:43;;;;;;;10.68;4.40;;;;;;;-143.48;65.85;77599.72;5032824;28;20477;-75
2022/09/08 01:47:09;;;;;;;11.90;4.05;;;;;;;-143.48;67.21;77623.50;5032868;28;20092;-76
2022/09/08 01:49:34;;;;;;;11.90;4.55;;;;;;;-143.48;68.41;77623.50;5032592;28;20451;-75
2022/09/08 01:51:59;;;;;;;12.80;4.85;;;;;;;-143.48;69.22;77617.56;5031451;28;20025;-75
2022/09/08 01:54:26;;;;;;;13.13;4.80;;;;;;;-143.48;69.04;77633.44;5031240;28;20025;-74
2022/09/08 01:56:52;;;;;;;12.48;4.97;;;;;;;-143.48;70.14;77641.38;5032752;28;20033;-75
2022/09/08 01:59:18;;;;;;;9.77;4.40;;;;;;;-143.48;69.62;77625.50;5032770;28;20381;-75
2022/09/08 02:01:43;;;;;;;11.32;5.20;;;;;;;-143.48;69.99;77639.38;5032626;28;20488;-76
2022/09/08 02:04:08;;;;;;;9.57;4.63;;;;;;;-143.48;70.66;77645.31;5031297;28;20021;-76
2022/09/08 02:06:34;;;;;;;14.10;5.00;;;;;;;-143.48;71.48;77657.22;5031286;28;20029;-75
2022/09/08 02:08:59;;;;;;;11.18;5.20;;;;;;;-143.48;72.47;77669.13;5031580;28;20022;-75
2022/09/08 02:11:24;;;;;;;10.02;5.10;;;;;;;-143.48;72.88;77677.06;5032632;28;20389;-76
2022/09/08 02:13:50;;;;;;;10.25;5.03;;;;;;;-143.48;73.08;77655.25;5032630;28;20021;-75
2022/09/08 02:16:16;;;;;;;15.23;5.18;;;;;;;-143.48;73.11;77643.34;5032567;28;20029;-75
2022/09/08 02:18:42;;;;;;;14.73;5.07;;;;;;;-143.48;73.11;77629.47;5033919;28;20021;-74
2022/09/08 02:21:16;;;;;;;13.20;5.03;;;;;;;-143.48;74.09;77659.22;5035983;28;20362;-75
2022/09/08 02:23:45;;;;;;;13.98;5.38;;;;;;;-143.48;74.86;77667.13;5034415;28;20124;-75
2022/09/08 02:26:15;;;;;;;11.63;5.18;;;;;;;-143.48;74.84;77649.28;5035819;28;20026;-75
2022/09/08 02:28:40;;;;;;;13.27;5.30;;;;;;;-143.48;75.09;77649.28;5036138;28;20040;-74
2022/09/08 02:31:06;;;;;;;14.52;5.70;;;;;;;-143.48;76.53;77639.38;5034583;28;20455;-75
2022/09/08 02:33:31;;;;;;;17.27;5.75;;;;;;;-143.48;76.32;77633.44;5035770;28;20021;-75
2022/09/08 02:35:57;;;;;;;13.32;6.18;;;;;;;-143.48;76.67;77651.28;5034572;28;20025;-75
2022/09/08 02:38:24;;;;;;;15.85;5.80;;;;;;;-143.48;76.54;77657.22;5035738;28;20492;-76
2022/09/08 02:40:49;;;;;;;16.65;6.07;;;;;;;-143.48;76.85;77649.28;5035625;28;20500;-75
2022/09/08 02:43:15;;;;;;;14.88;6.22;;;;;;;-143.48;77.83;77653.25;5034399;28;20112;-75
2022/09/08 02:45:41;;;;;;;15.60;6.03;;;;;;;-143.48;78.62;77671.09;5034565;28;20067;-76
2022/09/08 02:48:06;;;;;;;14.65;5.57;;;;;;;-143.48;78.33;77690.94;5034242;28;20021;-75
2022/09/08 02:50:33;;;;;;;11.77;5.30;;;;;;;-143.48;78.96;77671.09;5034127;28;20428;-75
2022/09/08 02:52:59;;;;;;;14.02;6.18;;;;;;;-143.48;78.21;77655.25;5035499;28;20025;-75
2022/09/08 02:55:24;;;;;;;13.50;5.88;;;;;;;-143.48;77.47;77645.31;5035141;28;20038;-76
2022/09/08 02:57:50;;;;;;;11.80;5.63;;;;;;;-143.48;77.72;77657.22;5035505;28;20048;-75
2022/09/08 03:00:17;;;;;;;14.73;5.60;;;;;;;-143.48;78.40;77661.19;5035370;28;20048;-75
2022/09/08 03:02:43;;;;;;;9.88;4.93;;;;;;;-143.48;77.90;77684.97;5033870;28;20083;-75
2022/09/08 03:05:09;;;;;;;14.73;5.30;;;;;;;-143.48;79.05;77675.06;5035218;28;20022;-75
2022/09/08 03:07:35;;;;;;;11.45;4.97;;;;;;;-143.48;79.15;77629.47;5033869;28;20025;-75
2022/09/08 03:10:02;;;;;;;18.25;5.25;;;;;;;-143.48;78.10;77637.41;5033845;28;20028;-75
2022/09/08 03:12:27;;;;;;;13.32;5.45;;;;;;;-143.48;78.32;77643.34;5034995;28;20063;-75
2022/09/08 03:14:54;;;;;;;11.85;4.97;;;;;;;-143.48;78.77;77643.34;5035047;28;20461;-75
2022/09/08 03:17:19;;;;;;;15.77;5.28;;;;;;;-143.48;78.85;77627.47;5035164;28;20029;-75
2022/09/08 03:19:45;;;;;;;13.45;5.18;;;;;;;-143.48;78.61;77631.44;5034862;28;20025;-75
2022/09/08 03:22:11;;;;;;;14.20;5.20;;;;;;;-143.48;79.09;77625.50;5035044;28;20025;-75
2022/09/08 03:24:36;;;;;;;13.63;5.55;;;;;;;-143.48;79.71;77613.59;5033768;28;20036;-75
2022/09/08 03:27:02;;;;;;;17.25;5.47;;;;;;;-143.48;78.29;77657.22;5033914;28;20021;-75
2022/09/08 03:29:31;;;;;;;17.00;5.00;;;;;;;-143.48;79.76;77639.38;5034155;28;20021;-75
2022/09/08 03:31:58;;;;;;;16.50;5.82;;;;;;;-143.48;78.71;77653.25;5035301;28;20047;-74
2022/09/08 03:34:23;;;;;;;12.30;5.40;;;;;;;-143.48;79.24;77635.41;5033787;28;20418;-75
2022/09/08 03:36:48;;;;;;;16.20;5.20;;;;;;;-143.48;79.48;77631.44;5034186;28;20027;-75
2022/09/08 03:39:14;;;;;;;11.40;5.28;;;;;;;-143.48;80.41;77615.59;5034824;28;20477;-75
2022/09/08 03:41:39;;;;;;;12.43;4.82;;;;;;;-143.48;79.82;77609.63;5035069;28;20108;-75
2022/09/08 03:44:06;;;;;;;12.85;5.70;;;;;;;-143.48;79.80;77623.50;5033741;28;20076;-75
2022/09/08 03:46:31;;;;;;;16.23;5.68;;;;;;;-143.48;79.35;77611.63;5033573;28;20017;-76
2022/09/08 03:48:56;;;;;;;10.88;5.00;;;;;;;-143.48;80.06;77601.72;5034752;28;20484;-76
2022/09/08 03:51:25;;;;;;;13.07;5.03;;;;;;;-143.48;80.49;77601.72;5034467;28;20045;-76
2022/09/08 03:54:46;;;;;;;13.00;5.07;;;;;;;-143.48;80.58;77609.63;5033002;28;20108;-76
2022/09/08 03:56:45;;;;;;;11.75;5.30;;;;;;;-143.48;81.55;77607.66;5033917;28;20087;-76
2022/09/08 03:59:11;;;;;;;10.00;4.97;;;;;;;-143.48;81.62;77609.63;5032930;28;20503;-75
2022/09/08 04:01:36;;;;;;;11.45;5.20;;;;;;;-143.48;82.09;77591.78;5034336;28;20432;-75
2022/09/08 04:04:03;;;;;;;11.13;5.50;;;;;;;-143.48;81.58;77591.78;5034164;28;20017;-75
2022/09/08 04:06:29;;;;;;;13.07;5.10;;;;;;;-143.48;80.12;77597.75;5034125;28;20021;-75
2022/09/08 04:08:54;;;;;;;11.10;4.72;;;;;;;-143.48;80.71;77603.69;5032654;28;20037;-75
2022/09/08 04:11:20;;;;;;;12.60;4.47;;;;;;;-143.48;79.24;77607.66;5034019;28;20104;-75
2022/09/08 04:13:46;;;;;;;12.38;4.13;;;;;;;-143.48;77.43;77637.41;5034092;28;20496;-75
2022/09/08 04:16:11;;;;;;;10.85;3.75;;;;;;;-143.48;77.48;77645.31;5033887;28;20018;-75
2022/09/08 04:18:36;;;;;;;13.10;4.40;;;;;;;-143.48;78.39;77635.41;5033801;28;20069;-75
2022/09/08 04:21:04;;;;;;;9.80;4.35;;;;;;;-143.48;77.74;77639.38;5032613;28;20045;-75
2022/09/08 04:23:30;;;;;;;12.20;4.32;;;;;;;-143.48;77.78;77629.47;5032723;28;20496;-75
2022/09/08 04:26:03;;;;;;;14.27;5.47;;;;;;;-143.48;78.67;77651.28;5033697;28;20037;-75
2022/09/08 04:28:29;;;;;;;12.52;5.15;;;;;;;-143.48;79.46;77659.22;5033564;28;20500;-74
2022/09/08 04:30:55;;;;;;;12.90;5.32;;;;;;;-143.48;80.72;77673.09;5033644;28;20492;-75
2022/09/08 04:33:21;;;;;;;17.88;6.28;;;;;;;-143.48;81.34;77686.97;5033670;28;20061;-75
2022/09/08 04:35:47;;;;;;;14.13;6.63;;;;;;;-143.48;81.92;77694.91;5033632;28;20481;-75
2022/09/08 04:38:12;;;;;;;18.50;6.88;;;;;;;-143.48;82.85;77679.03;5032261;28;20029;-76
2022/09/08 04:40:38;;;;;;;23.05;7.40;;;;;;;-143.48;83.17;77671.09;5033063;28;20024;-77
2022/09/08 04:43:03;;;;;;;25.73;7.05;;;;;;;-143.48;83.69;77692.91;5034324;28;20535;-78
2022/09/08 04:45:28;;;;;;;17.73;7.00;;;;;;;-143.48;84.09;77677.06;5034543;28;20147;-76
2022/09/08 04:47:54;;;;;;;12.40;6.68;;;;;;;-143.48;83.99;77679.03;5033743;28;20392;-76
2022/09/08 04:50:19;;;;;;;14.93;6.47;;;;;;;-143.48;84.39;77673.09;5033371;28;20025;-76
2022/09/08 04:52:44;;;;;;;16.58;6.28;;;;;;;-143.48;84.39;77671.09;5032079;28;20389;-76
2022/09/08 04:55:11;;;;;;;13.73;6.05;;;;;;;-143.48;83.81;77649.28;5033078;28;20132;-75
2022/09/08 04:57:36;;;;;;;13.65;6.00;;;;;;;-143.48;83.70;77647.31;5032061;28;20017;-75
2022/09/08 05:00:03;;;;;;;11.10;5.38;;;;;;;-143.48;82.48;77641.38;5032019;28;20026;-75
2022/09/08 05:02:29;;;;;;;15.02;5.60;;;;;;;-143.48;82.57;77643.34;5031886;28;20056;-76
2022/09/08 05:04:54;;;;;;;12.93;5.57;;;;;;;-143.48;83.30;77671.09;5031779;28;20063;-75
2022/09/08 05:07:20;;;;;;;10.95;5.38;;;;;;;-143.48;83.49;77671.09;5031972;28;20036;-75
2022/09/08 05:09:45;;;;;;;13.60;5.55;;;;;;;-143.48;83.82;77688.94;5033168;28;20116;-75
2022/09/08 05:12:10;;;;;;;13.15;5.82;;;;;;;-143.48;84.98;77690.94;5031778;28;20021;-75
2022/09/08 05:14:35;;;;;;;10.50;5.35;;;;;;;-143.48;85.13;77688.94;5033038;28;20381;-75
2022/09/08 05:17:01;;;;;;;13.75;5.80;;;;;;;-143.48;84.71;77675.06;5031703;28;20113;-76
2022/09/08 05:19:26;;;;;;;12.85;4.85;;;;;;;-143.48;83.58;77683.00;5031902;28;20033;-76
2022/09/08 05:21:51;;;;;;;15.27;5.50;;;;;;;-143.48;83.90;77669.13;5033028;28;20092;-76
2022/09/08 05:24:17;;;;;;;11.65;5.30;;;;;;;-143.48;84.00;77677.06;5031637;28;20032;-76
2022/09/08 05:26:42;;;;;;;14.35;5.25;;;;;;;-143.48;83.28;77661.19;5032227;28;20079;-76
2022/09/08 05:29:07;;;;;;;17.08;5.15;;;;;;;-143.48;84.42;77647.31;5032863;28;20472;-76
2022/09/08 05:31:33;;;;;;;13.85;5.15;;;;;;;-143.48;84.15;77639.38;5032856;28;20025;-76
2022/09/08 05:33:58;;;;;;;12.90;5.10;;;;;;;-143.48;84.11;77639.38;5032666;28;20025;-75
2022/09/08 05:36:30;;;;;;;12.18;4.75;;;;;;;-143.48;83.01;77645.31;5032047;28;20100;-80
2022/09/08 05:38:55;;;;;;;12.38;4.60;;;;;;;-143.48;83.43;77671.09;5034161;28;20387;-75
2022/09/08 05:41:22;;;;;;;11.13;4.53;;;;;;;-143.48;83.30;77657.22;5032786;28;20101;-75
2022/09/08 05:43:51;;;;;;;11.02;4.80;;;;;;;-143.48;82.97;77661.19;5031619;28;20022;-75
2022/09/08 05:46:16;;;;;;;11.65;4.93;;;;;;;-143.48;82.39;77684.97;5031386;28;20476;-76
2022/09/08 05:48:42;;;;;;;13.20;5.55;;;;;;;-143.48;82.72;77690.94;5031394;28;20082;-76
2022/09/08 05:51:10;;;;;;;11.18;5.38;;;;;;;-143.48;83.36;77710.75;5031477;28;20024;-75
2022/09/08 05:53:36;;;;;;;14.45;5.30;;;;;;;-143.48;83.54;77704.81;5038299;28;20060;-75
2022/09/08 05:56:06;;;;;;;13.18;5.38;;;;;;;-143.48;83.38;77702.84;5040602;28;20465;-81
2022/09/08 05:58:31;;;;;;;9.88;5.22;;;;;;;-143.48;83.12;77702.84;5039068;28;20033;-77
2022/09/08 06:01:03;;;;;;;10.98;5.47;;;;;;;-143.48;84.13;77724.63;5039706;28;20068;-75
2022/09/08 06:03:28;;;;;;;12.45;5.90;;;;;;;-143.48;84.09;77688.94;5036278;28;20135;-76
2022/09/08 06:05:55;;;;;;;13.02;5.30;;;;;;;-143.48;83.92;77667.13;5034854;28;20037;-75
2022/09/08 06:08:21;;;;;;;12.60;5.22;;;;;;;-143.48;82.95;77712.75;5035942;28;20101;-76
2022/09/08 06:10:50;;;;;;;14.38;5.47;;;;;;;-143.48;83.91;77720.69;5035905;28;20366;-76
2022/09/08 06:13:15;;;;;;;17.70;7.22;;;;;;;-143.48;83.88;77702.84;5036195;28;20030;-76
2022/09/08 06:15:40;;;;;;;12.13;5.78;;;;;;;-143.48;83.87;77700.84;5034902;28;20021;-75
2022/09/08 06:18:06;;;;;;;12.65;5.82;;;;;;;-143.48;83.98;77694.91;5035995;28;20072;-75
2022/09/08 06:20:31;;;;;;;11.85;6.00;;;;;;;-143.48;84.06;77706.78;5034607;28;20029;-77
2022/09/08 06:22:56;;;;;;;13.55;6.13;;;;;;;-143.48;84.77;77730.59;5036116;28;20091;-75
2022/09/08 06:25:21;;;;;;;13.10;5.95;;;;;;;-143.48;84.66;77716.72;5034412;28;20051;-75
2022/09/08 06:28:15;;;;;;;15.55;6.95;;;;;;;-143.48;84.89;77722.66;5034300;28;20047;-77
2022/09/08 06:30:42;;;;;;;12.95;6.55;;;;;;;-143.48;85.23;77704.81;5034388;28;20451;-76
2022/09/08 06:33:13;;;;;;;14.35;6.63;;;;;;;-143.48;85.14;77692.91;5035659;28;20027;-75
2022/09/08 06:35:59;;;;;;;11.63;6.68;;;;;;;-143.48;85.06;77686.97;5034450;28;20022;-76
2022/09/08 06:38:31;;;;;;;12.82;6.75;;;;;;;-143.48;84.26;77686.97;5034346;28;20143;-76
2022/09/08 06:41:09;;;;;;;11.60;6.43;;;;;;;-143.48;84.13;77696.88;5035919;28;20048;-75
2022/09/08 06:43:51;;;;;;;12.50;6.68;;;;;;;-143.48;85.52;77696.88;5036170;28;20160;-75
2022/09/08 06:46:21;;;;;;;13.68;6.75;;;;;;;-143.48;84.85;77698.88;5037069;28;20022;-75
2022/09/08 06:48:47;;;;;;;11.75;6.50;;;;;;;-143.48;84.66;77677.06;5035130;28;20029;-75
2022/09/08 06:51:31;;;;;;;12.88;6.70;;;;;;;-143.48;83.89;77684.97;5034965;28;20033;-76
2022/09/08 06:54:19;;;;;;;14.52;6.78;;;;;;;-143.48;83.61;77688.94;5035759;28;20025;-76
2022/09/08 06:57:02;;;;;;;11.68;5.60;;;;;;;-143.48;83.79;77686.97;5035332;28;20042;-76
2022/09/08 06:59:47;;;;;;;12.93;6.50;;;;;;;-143.48;84.22;77718.69;5036029;28;20032;-76
2022/09/08 07:02:31;;;;;;;11.50;6.55;;;;;;;-143.48;84.26;77694.91;5035851;28;20163;-76
2022/09/08 07:05:03;;;;;;;13.38;6.70;;;;;;;-143.48;84.58;77730.59;5036668;28;20040;-77
2022/09/08 07:08:00;;;;;;;14.75;6.75;;;;;;;-143.48;85.49;77720.69;5035100;28;20022;-76
2022/09/08 07:10:40;;;;;;;11.82;7.20;;;;;;;-143.48;85.57;77714.72;5036292;28;20025;-76
2022/09/08 07:13:16;;;;;;;15.13;7.07;;;;;;;-143.48;84.97;77710.75;5035790;28;20056;-75
2022/09/08 07:16:11;;;;;;;11.00;7.45;;;;;;;-143.48;84.58;77694.91;5036949;28;20017;-76
2022/09/08 07:18:59;;;;;;;12.98;7.13;;;;;;;-143.48;84.81;77704.81;5038016;28;20028;-76
2022/09/08 07:21:27;;;;;;;19.92;7.63;;;;;;;-143.48;85.49;77690.94;5041457;28;20036;-76
2022/09/08 07:23:55;;;;;;;16.88;7.50;;;;;;;-143.48;85.70;77690.94;5043769;28;20021;-75
2022/09/08 07:26:30;;;;;;;12.10;7.35;;;;;;;-143.48;85.61;77671.09;5049102;28;20049;-77
2022/09/08 07:29:03;;;;;;;10.65;6.68;;;;;;;-143.48;84.81;77665.16;5048079;28;20029;-76
2022/09/08 07:31:28;;;;;;;12.05;7.15;;;;;;;-143.48;84.88;77686.97;5047668;28;20021;-75
2022/09/08 07:34:02;;;;;;;14.30;7.03;;;;;;;-143.48;84.46;77679.03;5049123;28;20033;-76
2022/09/08 07:36:44;;;;;;;13.07;7.40;;;;;;;-143.48;84.54;77673.09;5048606;28;20469;-75
2022/09/08 07:39:30;;;;;;;11.55;7.20;;;;;;;-143.48;84.50;77661.19;5048280;28;20029;-76
2022/09/08 07:41:59;;;;;;;10.38;7.10;;;;;;;-143.48;83.44;77637.41;5048106;28;20028;-75
2022/09/08 07:44:25;;;;;;;15.02;6.97;;;;;;;-143.48;83.03;77655.25;5048010;28;20021;-76
2022/09/08 07:47:31;;;;;;;7.90;5.97;;;;;;;-143.48;83.40;77673.09;5034449;28;20465;-75
2022/09/08 07:50:17;;;;;;;12.93;6.60;;;;;;;-143.48;83.56;77665.16;5032804;28;20025;-76
2022/09/08 07:52:54;;;;;;;15.02;7.22;;;;;;;-143.48;83.95;77663.19;5033982;28;20041;-76
2022/09/08 07:55:32;;;;;;;12.93;6.75;;;;;;;-143.48;82.98;77657.22;5034854;28;20087;-76
2022/09/08 07:58:03;;;;;;;11.38;6.43;;;;;;;-143.48;82.66;77677.06;5040074;28;20485;-76
2022/09/08 08:01:10;;;;;;;12.95;6.65;;;;;;;-143.48;83.61;77647.31;5036362;28;20025;-76
2022/09/08 08:04:07;;;;;;;13.82;7.22;;;;;;;-143.48;82.77;77651.28;5034960;28;20041;-76
2022/09/08 08:06:45;;;;;;;11.45;6.97;;;;;;;-143.48;82.80;77647.31;5035241;28;20022;-76
2022/09/08 08:09:22;;;;;;;13.77;7.00;;;;;;;-143.48;82.75;77661.19;5035028;28;20029;-74
2022/09/08 08:12:26;;;;;;;10.75;7.05;;;;;;;-143.48;82.14;77627.47;5033490;28;20029;-75
2022/09/08 08:15:12;;;;;;;11.20;6.50;;;;;;;-143.48;81.59;77651.28;4990206;28;20060;-76
2022/09/08 08:17:54;;;;;;;12.27;6.60;;;;;;;-143.48;81.71;77667.13;5034154;28;20026;-76
2022/09/08 08:20:46;;;;;;;9.52;6.18;;;;;;;-143.48;80.61;77649.28;5033383;28;20040;-77
2022/09/08 08:23:30;;;;;;;12.57;6.18;;;;;;;-143.48;80.27;77651.28;5034648;28;20433;-76
2022/09/08 08:26:32;;;;;;;8.98;6.00;;;;;;;-143.48;80.09;77633.44;5037047;28;20347;-76
2022/09/08 08:29:32;;;;;;;14.67;6.87;;;;;;;-143.48;80.24;77645.31;5034746;28;20075;-75
2022/09/08 08:32:17;;;;;;;12.68;6.53;;;;;;;-143.48;80.89;77661.19;5036296;28;20451;-76
2022/09/08 08:34:56;;;;;;;11.68;7.07;;;;;;;-143.48;79.99;77645.31;5034207;28;20099;-75
2022/09/08 08:37:26;;;;;;;14.68;7.03;;;;;;;-143.48;80.84;77675.06;5034349;28;20029;-74
2022/09/08 08:39:53;;;;;;;10.45;7.03;;;;;;;-143.48;81.21;77665.16;5034608;28;20018;-73
2022/09/08 08:42:29;;;;;;;12.23;7.03;;;;;;;-143.48;80.95;77649.28;5032945;28;20022;-74
2022/09/08 08:45:36;;;;;;;13.13;7.03;;;;;;;-143.48;80.95;77631.44;5034083;28;20037;-74
2022/09/08 08:48:19;;;;;;;10.63;6.60;;;;;;;-143.48;78.70;77601.72;4972851;28;20053;-72
2022/09/08 08:50:53;;;;;;;;;;;;;;;-143.48;78.90;77619.56;5026550;28;20087;-73
2022/09/08 08:53:33;;;;;;;11.93;7.75;;;;;;;-143.48;79.03;77641.38;5032656;28;20420;-74
2022/09/08 08:56:20;;;;;;;13.55;7.50;;;;;;;-143.48;78.93;77619.56;5033914;28;20042;-72
2022/09/08 08:58:57;;;;;;;12.02;7.97;;;;;;;-143.48;78.47;77579.91;5034711;28;20035;-73
2022/09/08 09:01:44;;;;;;;13.13;8.25;;;;;;;-143.48;75.34;77554.13;5035134;28;20027;-72
2022/09/08 09:04:31;;;;;;;14.18;8.48;;;;;;;-143.48;71.92;77447.03;5037048;28;20041;-73
2022/09/08 09:07:08;;;;;;;13.18;8.30;;;;;;;-143.48;68.52;77306.28;5036835;28;20087;-74
2022/09/08 09:09:54;;;;;;;13.40;8.15;;;;;;;-143.48;65.84;77284.47;5039066;28;20121;-74
2022/09/08 09:12:46;;;;;;;11.40;7.75;;;;;;;-143.48;68.57;77405.41;5039736;28;20029;-75
2022/09/08 09:15:30;;;;;;;12.55;8.10;;;;;;;-143.48;64.54;77232.91;5037616;28;20492;-74
2022/09/08 09:18:01;;;;;;;11.98;7.93;;;;;;;-143.48;65.90;77266.63;5039172;28;20040;-74
2022/09/08 09:20:50;;;;;;;14.18;8.93;;;;;;;-143.48;65.64;77290.41;5039369;28;20032;-73
2022/09/08 09:23:29;;;;;;;12.90;7.90;;;;;;;-143.48;66.61;77248.78;5038911;28;20017;-74
2022/09/08 09:26:22;;;;;;;13.25;7.65;;;;;;;-143.48;64.95;77330.06;5038875;28;20508;-75
2022/09/08 09:29:18;;;;;;;9.25;6.20;;;;;;;-143.48;64.49;77369.72;5043326;28;20067;-74
2022/09/08 09:32:04;;;;;;;10.52;5.47;;;;;;;-143.48;60.97;77215.06;5042885;28;20032;-73
2022/09/08 09:34:45;;;;;;;9.80;5.10;;;;;;;-143.48;59.04;77217.06;5041621;28;20452;-74
2022/09/08 09:37:25;;;;;;;7.45;4.72;;;;;;;-143.48;56.38;77098.09;5042853;28;20021;-75
2022/09/08 09:40:09;;;;;;;5.82;4.40;;;;;;;-143.48;55.31;77119.91;5042093;28;20431;-75
2022/09/08 09:42:43;;;;;;;6.85;4.32;;;;;;;-143.48;56.61;77165.50;5043586;28;20673;-75
2022/09/08 09:45:46;;;;;;;8.73;4.88;;;;;;;-143.48;55.94;77149.66;5042109;28;20076;-74
2022/09/08 09:48:20;;;;;;;7.30;4.93;;;;;;;-143.48;58.08;77177.41;5043279;28;20032;-75
2022/09/08 09:50:51;;;;;;;7.90;4.97;;;;;;;-143.48;57.93;77159.56;5043453;28;20025;-74
2022/09/08 09:53:48;;;;;;;8.20;5.55;;;;;;;-143.48;58.78;77185.34;5042713;28;20476;-74
2022/09/08 09:56:42;;;;;;;8.73;5.57;;;;;;;-143.48;59.54;77234.91;5042674;28;20056;-76
2022/09/08 09:59:43;;;;;;;9.20;6.40;;;;;;;-143.48;60.63;77304.28;5041840;28;20104;-75
2022/09/08 10:02:23;;;;;;;11.60;7.35;;;;;;;-143.48;63.20;77322.13;5016407;28;20099;-74
2022/09/08 10:05:14;;;;;;;10.40;7.72;;;;;;;-143.48;64.36;77383.59;5040096;28;20025;-74
2022/09/08 10:08:11;;;;;;;13.18;8.70;;;;;;;-143.48;66.46;77409.38;5041608;28;20446;-74
2022/09/08 10:11:00;;;;;;;14.90;9.90;;;;;;;-143.48;67.04;77399.47;5039885;28;20121;-74
2022/09/08 10:14:04;;;;;;;14.52;9.55;;;;;;;-143.48;68.20;77425.25;5040610;28;20021;-74
2022/09/08 10:16:45;;;;;;;11.10;8.30;;;;;;;-143.48;66.85;77381.63;5041409;28;20017;-75
2022/09/08 10:19:35;;;;;;;11.80;7.90;;;;;;;-143.48;64.79;77339.97;5041589;28;20071;-75
2022/09/08 10:22:27;;;;;;;11.45;7.43;;;;;;;-143.48;66.15;77288.44;5041187;28;20021;-75
2022/09/08 10:25:25;;;;;;;10.13;5.30;;;;;;;-143.48;63.23;77306.28;5041620;28;20053;-75
2022/09/08 10:28:10;;;;;;;10.50;5.15;;;;;;;-143.48;63.10;77310.25;5040297;28;20079;-74
2022/09/08 10:30:54;;;;;;;10.45;4.88;;;;;;;-143.48;62.08;77338.00;5041653;28;20021;-74
2022/09/08 10:33:28;;;;;;;12.65;4.50;;;;;;;-143.48;58.36;77217.06;5042123;28;20021;-74
2022/09/08 10:36:06;;;;;;;8.10;4.43;;;;;;;-143.48;56.17;77046.56;5041212;28;20028;-75
2022/09/08 10:38:58;;;;;;;10.43;4.45;;;;;;;-143.48;54.29;77036.63;5041300;28;20040;-75
2022/09/08 10:41:52;;;;;;;8.63;5.30;;;;;;;-143.48;56.62;77147.66;5040998;28;20023;-75
2022/09/08 10:44:49;;;;;;;10.60;5.53;;;;;;;-143.48;58.77;77195.25;5040357;28;20847;-75
2022/09/08 10:47:42;;;;;;;9.43;5.93;;;;;;;-143.48;58.92;77232.91;5041078;28;20025;-75
2022/09/08 10:50:16;;;;;;;;;;;;;;;-143.48;60.01;77284.47;5041233;28;20076;-75
2022/09/08 10:53:13;;;;;;;12.02;5.78;;;;;;;-143.48;60.87;77254.72;5040933;28;19909;-74
2022/09/08 10:55:58;;;;;;;9.32;5.45;;;;;;;-143.48;61.63;77300.31;5040301;28;20041;-74
2022/09/08 10:58:50;;;;;;;11.70;4.82;;;;;;;-143.48;58.09;77163.53;5040601;28;20026;-74
2022/09/08 11:01:49;;;;;;;11.75;4.03;;;;;;;-143.48;54.18;76983.09;5043015;28;20029;-74
2022/09/08 11:04:28;;;;;;;9.45;3.90;;;;;;;-143.48;50.31;76901.81;5050013;28;20031;-80
2022/09/08 11:07:28;;;;;;;8.15;3.20;;;;;;;-143.48;49.12;76889.94;5040960;28;20044;-75
2022/09/08 11:10:31;;;;;;;9.60;3.40;;;;;;;-143.48;46.99;76844.34;5042710;28;20025;-75
2022/09/08 11:13:15;;;;;;;10.73;3.80;;;;;;;-143.48;48.41;76913.72;5042325;28;20022;-73
2022/09/08 11:16:18;;;;;;;6.72;3.00;;;;;;;-143.48;47.67;76947.41;5035326;28;20014;-74
2022/09/08 11:18:43;;;;;;;5.65;3.10;;;;;;;-143.48;48.31;76907.78;5035069;28;20025;-73
2022/09/08 11:21:30;;;;;;;6.27;3.17;;;;;;;-143.48;46.58;76870.09;5033807;28;20138;-73
2022/09/08 11:24:23;;;;;;;5.20;2.35;;;;;;;-143.48;45.72;76897.84;5034982;28;20040;-74
2022/09/08 11:26:54;;;;;;;6.18;2.30;;;;;;;-143.48;45.47;76959.31;5033588;28;20082;-73
2022/09/08 11:29:30;;;;;;;5.68;2.10;;;;;;;-143.48;44.96;76872.09;5036159;28;20025;-73
2022/09/08 11:32:17;;;;;;;5.75;2.17;;;;;;;-143.48;45.72;76862.19;5036229;28;20021;-74
2022/09/08 11:35:07;;;;;;;6.35;2.35;;;;;;;-143.48;45.45;76897.84;5034638;28;20037;-74
2022/09/08 11:37:47;;;;;;;6.70;2.63;;;;;;;-143.48;46.90;76880.03;5035265;28;20025;-74
2022/09/08 11:40:40;;;;;;;5.07;1.77;;;;;;;-143.48;44.25;76770.97;5040282;28;20029;-73
2022/09/08 11:43:08;;;;;;;;;;;;;;;-143.48;43.60;76842.34;5043759;28;20021;-74
2022/09/08 11:46:20;;;;;;;7.68;2.00;;;;;;;-143.48;46.23;76996.97;5033773;28;19913;-74
2022/09/08 11:48:58;;;;;;;8.10;2.00;;;;;;;-143.48;46.59;76917.69;5034510;28;20052;-74
2022/09/08 11:52:02;;;;;;;7.70;2.33;;;;;;;-143.48;44.87;76830.47;5033649;28;20036;-74
2022/09/08 11:54:58;;;;;;;7.78;2.65;;;;;;;-143.48;44.72;76850.28;5023880;28;20029;-75